Time;durP1;ratioP1;P1;durP2;ratioP2;P2;SDS_P1;SDS_P2;PMS_P1;PMS_P2;Temp;Humidity;BMP_temperature;BMP_pressure;BME280_temperature;BME280_humidity;BME280_pressure;Samples;Min_cycle;Max_cycle;Signal;HPM_P1;HPM_P2
2020/12/25 00:01:08;;;;;;;1.95;0.68;;;8.90;54.50;;;;;;5029188;28;80471;-78
2020/12/25 00:03:35;;;;;;;2.80;0.38;;;8.90;54.80;;;;;;5010367;28;80411;-75
2020/12/25 00:06:00;;;;;;;2.17;0.50;;;8.90;54.70;;;;;;5010783;28;82561;-75
2020/12/25 00:08:26;;;;;;;3.53;0.88;;;8.80;55.00;;;;;;5028991;28;80336;-75
2020/12/25 00:10:53;;;;;;;5.13;0.65;;;8.70;55.30;;;;;;5029184;28;80834;-73
2020/12/25 00:13:19;;;;;;;1.13;0.50;;;8.60;55.80;;;;;;5010786;28;80492;-74
2020/12/25 00:15:46;;;;;;;1.92;0.77;;;8.60;55.80;;;;;;5028331;28;81012;-75
2020/12/25 00:18:12;;;;;;;3.22;1.05;;;8.50;56.00;;;;;;5010193;28;80633;-77
2020/12/25 00:20:38;;;;;;;3.22;0.90;;;8.40;56.30;;;;;;5028731;28;80553;-77
2020/12/25 00:23:03;;;;;;;2.85;0.90;;;8.40;56.50;;;;;;5029255;28;79767;-75
2020/12/25 00:25:29;;;;;;;3.40;0.70;;;8.40;56.60;;;;;;5009930;28;83219;-74
2020/12/25 00:27:55;;;;;;;2.85;0.60;;;8.30;56.80;;;;;;5027846;28;82182;-76
2020/12/25 00:30:20;;;;;;;3.47;0.98;;;8.20;57.00;;;;;;5028560;28;80771;-75
2020/12/25 00:32:46;;;;;;;1.83;0.50;;;8.20;57.10;;;;;;5009702;28;81529;-74
2020/12/25 00:35:12;;;;;;;2.13;0.60;;;8.10;57.10;;;;;;5028784;28;79954;-74
2020/12/25 00:37:37;;;;;;;1.60;0.60;;;8.10;57.30;;;;;;5010051;28;82876;-76
2020/12/25 00:40:04;;;;;;;1.95;0.70;;;8.10;57.50;;;;;;5010085;28;83663;-76
2020/12/25 00:42:30;;;;;;;0.93;0.35;;;8.00;57.50;;;;;;5010071;28;83162;-76
2020/12/25 00:44:56;;;;;;;3.08;0.60;;;8.00;57.30;;;;;;5028053;28;80273;-75
2020/12/25 00:47:22;;;;;;;3.97;0.60;;;8.00;57.30;;;;;;5028316;28;79843;-76
2020/12/25 00:49:48;;;;;;;1.50;0.63;;;8.00;57.30;;;;;;5009809;28;80600;-76
2020/12/25 00:52:13;;;;;;;0.90;0.22;;;8.00;57.30;;;;;;5009884;28;81298;-75
2020/12/25 00:54:39;;;;;;;2.80;0.68;;;7.90;57.60;;;;;;5028620;28;80866;-73
2020/12/25 00:57:05;;;;;;;4.30;0.60;;;7.90;57.70;;;;;;5027635;28;80072;-75
2020/12/25 00:59:31;;;;;;;1.75;0.70;;;7.90;57.50;;;;;;5008618;28;81626;-77
2020/12/25 01:01:56;;;;;;;2.25;0.40;;;7.90;57.60;;;;;;5009314;28;81464;-81
2020/12/25 01:04:22;;;;;;;2.78;0.47;;;7.90;58.00;;;;;;5010052;28;82330;-75
2020/12/25 01:06:48;;;;;;;2.08;0.35;;;7.80;58.30;;;;;;5009356;28;80478;-74
2020/12/25 01:09:14;;;;;;;1.35;0.57;;;7.80;58.50;;;;;;5009739;28;81756;-76
2020/12/25 01:11:41;;;;;;;1.27;0.50;;;7.80;58.50;;;;;;5028205;28;80149;-78
2020/12/25 01:14:07;;;;;;;2.35;0.65;;;7.70;58.60;;;;;;5009770;28;81910;-75
2020/12/25 01:16:33;;;;;;;1.48;0.40;;;7.70;58.70;;;;;;5027693;28;80323;-74
2020/12/25 01:18:59;;;;;;;3.05;1.33;;;7.70;58.80;;;;;;5027751;28;81093;-76
2020/12/25 01:21:25;;;;;;;2.30;0.80;;;7.70;59.00;;;;;;5028167;28;79767;-76
2020/12/25 01:23:50;;;;;;;3.03;0.88;;;7.60;58.90;;;;;;5027450;28;80822;-79
2020/12/25 01:26:16;;;;;;;3.75;1.00;;;7.60;58.90;;;;;;5009070;28;83603;-76
2020/12/25 01:28:42;;;;;;;3.42;1.17;;;7.60;59.00;;;;;;5027026;28;82658;-75
2020/12/25 01:31:07;;;;;;;5.75;1.10;;;7.60;59.00;;;;;;5027523;28;80214;-75
2020/12/25 01:33:35;;;;;;;4.15;0.60;;;7.50;59.10;;;;;;5009137;28;81690;-76
2020/12/25 01:36:02;;;;;;;4.35;1.20;;;7.50;59.20;;;;;;5009068;28;83067;-73
2020/12/25 01:38:28;;;;;;;5.03;1.02;;;7.50;59.40;;;;;;5009373;28;82798;-75
2020/12/25 01:40:53;;;;;;;2.58;0.90;;;7.50;59.60;;;;;;5009209;28;81295;-77
2020/12/25 01:43:19;;;;;;;2.22;0.30;;;7.50;59.80;;;;;;5027626;28;80611;-87
2020/12/25 01:45:45;;;;;;;3.60;0.60;;;7.50;59.90;;;;;;5027846;28;79990;-86
2020/12/25 01:48:12;;;;;;;1.50;0.30;;;7.50;59.90;;;;;;5026513;28;81980;-86
2020/12/25 01:50:38;;;;;;;1.38;0.45;;;7.40;60.00;;;;;;5027761;28;82588;-81
2020/12/25 01:53:05;;;;;;;3.97;0.50;;;7.50;60.20;;;;;;5027689;28;81087;-81
2020/12/25 01:55:33;;;;;;;2.15;0.70;;;7.40;60.60;;;;;;5009019;28;82409;-84
2020/12/25 01:58:00;;;;;;;1.25;0.40;;;7.40;60.40;;;;;;5027149;28;80593;-82
2020/12/25 02:00:29;;;;;;;8.43;0.63;;;7.40;60.40;;;;;;5027052;28;80452;-80
2020/12/25 02:02:55;;;;;;;3.92;1.27;;;7.40;60.30;;;;;;5009279;28;83559;-80
2020/12/25 02:05:21;;;;;;;0.90;0.40;;;7.40;60.20;;;;;;5026920;28;80217;-76
2020/12/25 02:07:47;;;;;;;1.65;0.63;;;7.40;60.20;;;;;;5008246;28;82870;-76
2020/12/25 02:10:14;;;;;;;2.80;0.40;;;7.40;60.40;;;;;;5008737;28;81299;-77
2020/12/25 02:12:40;;;;;;;3.60;0.93;;;7.30;60.50;;;;;;5008313;28;80830;-77
2020/12/25 02:15:07;;;;;;;1.73;0.35;;;7.30;60.60;;;;;;5008076;28;82324;-78
2020/12/25 02:17:33;;;;;;;2.85;0.45;;;7.30;60.60;;;;;;5026401;28;81060;-76
2020/12/25 02:20:02;;;;;;;2.35;0.70;;;7.30;60.60;;;;;;5027034;28;80467;-77
2020/12/25 02:22:31;;;;;;;1.60;0.50;;;7.20;60.70;;;;;;5026918;28;80552;-74
2020/12/25 02:24:57;;;;;;;3.35;0.90;;;7.20;60.90;;;;;;5008469;28;80671;-77
2020/12/25 02:27:22;;;;;;;2.97;0.60;;;7.20;61.00;;;;;;5008123;28;79870;-76
2020/12/25 02:29:48;;;;;;;2.60;0.80;;;7.20;61.10;;;;;;5025991;28;81925;-75
2020/12/25 02:32:14;;;;;;;3.85;1.30;;;7.10;61.20;;;;;;5026417;28;79748;-75
2020/12/25 02:34:39;;;;;;;3.38;1.30;;;7.00;61.30;;;;;;5008308;28;81602;-78
2020/12/25 02:37:05;;;;;;;2.20;0.93;;;7.00;61.50;;;;;;5026783;28;80319;-77
2020/12/25 02:39:31;;;;;;;3.15;1.13;;;6.90;61.60;;;;;;5026188;28;80354;-76
2020/12/25 02:41:57;;;;;;;3.15;1.58;;;6.90;61.90;;;;;;5026792;28;80575;-78
2020/12/25 02:44:22;;;;;;;6.43;1.60;;;6.80;62.10;;;;;;5008121;28;82776;-74
2020/12/25 02:46:48;;;;;;;4.15;1.88;;;6.80;62.30;;;;;;5026730;28;80553;-74
2020/12/25 02:49:14;;;;;;;3.08;1.40;;;6.70;62.50;;;;;;5026206;28;80777;-75
2020/12/25 02:51:39;;;;;;;5.07;2.00;;;6.70;62.70;;;;;;5026409;28;80384;-74
2020/12/25 02:54:05;;;;;;;4.07;2.03;;;6.60;63.10;;;;;;5026607;28;80161;-74
2020/12/25 02:56:31;;;;;;;3.42;1.83;;;6.60;63.20;;;;;;5026027;28;80574;-75
2020/12/25 02:58:57;;;;;;;2.55;1.27;;;6.60;63.30;;;;;;5008374;28;82908;-74
2020/12/25 03:01:22;;;;;;;3.88;1.33;;;6.50;63.40;;;;;;5026335;28;81101;-82
2020/12/25 03:03:48;;;;;;;3.15;1.08;;;6.50;63.40;;;;;;5026204;28;80107;-79
2020/12/25 03:06:14;;;;;;;3.35;1.45;;;6.50;63.50;;;;;;5008196;28;81698;-75
2020/12/25 03:08:41;;;;;;;2.53;1.08;;;6.50;63.60;;;;;;5026137;28;79884;-79
2020/12/25 03:11:06;;;;;;;3.60;1.27;;;6.40;63.70;;;;;;5008425;28;81867;-75
2020/12/25 03:13:36;;;;;;;3.45;1.42;;;6.40;63.90;;;;;;5026328;28;80204;-80
2020/12/25 03:16:03;;;;;;;3.63;1.17;;;6.40;64.10;;;;;;5026926;28;79751;-77
2020/12/25 03:18:28;;;;;;;4.70;1.67;;;6.40;64.20;;;;;;5026409;28;80081;-78
2020/12/25 03:20:54;;;;;;;4.13;1.50;;;6.40;64.30;;;;;;5007534;28;82668;-78
2020/12/25 03:23:20;;;;;;;3.55;1.42;;;6.40;64.40;;;;;;5009623;28;80011;-79
2020/12/25 03:25:46;;;;;;;4.05;1.83;;;6.40;64.60;;;;;;5029527;28;79935;-79
2020/12/25 03:28:11;;;;;;;3.85;1.55;;;6.40;64.80;;;;;;5010927;28;82559;-74
2020/12/25 03:30:37;;;;;;;3.38;1.40;;;6.40;65.00;;;;;;5011232;28;83587;-74
2020/12/25 03:33:03;;;;;;;3.40;1.63;;;6.40;65.10;;;;;;5011004;28;81143;-73
2020/12/25 03:35:29;;;;;;;3.90;1.40;;;6.40;65.10;;;;;;5029600;28;80675;-73
2020/12/25 03:37:54;;;;;;;3.78;1.92;;;6.40;65.30;;;;;;5011090;28;82150;-73
2020/12/25 03:40:20;;;;;;;4.20;1.75;;;6.40;65.40;;;;;;5029401;28;80511;-73
2020/12/25 03:42:47;;;;;;;3.28;1.10;;;6.40;65.50;;;;;;5011082;28;81692;-75
2020/12/25 03:45:12;;;;;;;4.22;1.30;;;6.30;65.50;;;;;;5011069;28;80830;-72
2020/12/25 03:47:39;;;;;;;4.18;1.35;;;6.30;65.60;;;;;;5028983;28;80324;-80
2020/12/25 03:50:05;;;;;;;4.13;1.63;;;6.30;65.60;;;;;;5029315;28;80469;-80
2020/12/25 03:52:31;;;;;;;5.88;1.35;;;6.20;65.60;;;;;;5010859;28;82593;-76
2020/12/25 03:54:56;;;;;;;4.15;1.60;;;6.20;65.70;;;;;;5029171;28;81124;-75
2020/12/25 03:57:22;;;;;;;6.03;2.13;;;6.20;66.10;;;;;;5010552;28;80462;-76
2020/12/25 03:59:48;;;;;;;3.80;2.10;;;6.20;66.00;;;;;;5010648;28;83857;-77
2020/12/25 04:02:13;;;;;;;5.13;1.80;;;6.20;65.90;;;;;;5010783;28;80052;-77
2020/12/25 04:04:39;;;;;;;3.78;1.58;;;6.20;66.00;;;;;;5028479;28;80743;-77
2020/12/25 04:07:05;;;;;;;10.52;2.58;;;6.20;66.10;;;;;;5029166;28;80286;-76
2020/12/25 04:09:31;;;;;;;5.55;1.50;;;6.10;66.30;;;;;;5010318;28;83226;-78
2020/12/25 04:11:56;;;;;;;3.67;1.83;;;6.10;66.50;;;;;;5028639;28;80186;-78
2020/12/25 04:14:22;;;;;;;4.65;1.70;;;6.10;66.50;;;;;;5010934;28;83937;-78
2020/12/25 04:16:48;;;;;;;3.78;1.75;;;6.10;66.50;;;;;;5028197;28;80219;-79
2020/12/25 04:19:14;;;;;;;8.15;2.10;;;6.10;66.70;;;;;;5029025;28;80551;-77
2020/12/25 04:21:40;;;;;;;3.78;1.60;;;6.10;66.90;;;;;;5010159;28;79698;-78
2020/12/25 04:24:06;;;;;;;6.00;1.60;;;6.00;67.10;;;;;;5010596;28;80787;-78
2020/12/25 04:26:31;;;;;;;5.18;1.30;;;5.90;67.30;;;;;;5010368;28;82639;-81
2020/12/25 04:28:57;;;;;;;4.50;1.88;;;5.90;67.60;;;;;;5010183;28;82510;-78
2020/12/25 04:31:25;;;;;;;3.70;1.58;;;5.90;67.70;;;;;;5010334;28;80758;-82
2020/12/25 04:33:51;;;;;;;4.43;1.63;;;5.90;67.90;;;;;;5028315;28;79937;-76
2020/12/25 04:36:17;;;;;;;3.58;1.60;;;5.80;68.10;;;;;;5028614;28;80395;-82
2020/12/25 04:38:44;;;;;;;4.85;2.03;;;5.80;68.10;;;;;;5009769;28;83625;-81
2020/12/25 04:41:10;;;;;;;5.18;1.30;;;5.70;68.00;;;;;;5009870;28;84397;-79
2020/12/25 04:43:38;;;;;;;7.10;1.52;;;5.70;67.80;;;;;;5028594;28;80480;-80
2020/12/25 04:46:05;;;;;;;5.13;1.63;;;5.60;67.90;;;;;;5028556;28;79859;-79
2020/12/25 04:48:30;;;;;;;4.82;1.90;;;5.50;67.90;;;;;;5010103;28;80682;-79
2020/12/25 04:50:56;;;;;;;3.55;1.70;;;5.50;68.10;;;;;;5010167;28;80605;-75
2020/12/25 04:53:22;;;;;;;4.35;2.10;;;5.40;68.10;;;;;;5028361;28;80801;-74
2020/12/25 04:55:48;;;;;;;4.22;1.92;;;5.40;68.30;;;;;;5028304;28;80245;-71
2020/12/25 04:58:14;;;;;;;5.28;1.58;;;5.40;68.50;;;;;;5009683;28;79878;-75
2020/12/25 05:00:39;;;;;;;5.57;1.65;;;5.30;68.70;;;;;;5010069;28;83461;-77
2020/12/25 05:03:07;;;;;;;2.90;1.17;;;5.30;69.00;;;;;;5009861;28;81800;-75
2020/12/25 05:05:32;;;;;;;5.47;1.55;;;5.20;69.00;;;;;;5028367;28;79830;-76
2020/12/25 05:08:00;;;;;;;4.10;1.42;;;5.20;69.20;;;;;;5028200;28;80558;-80
2020/12/25 05:10:26;;;;;;;3.60;1.23;;;5.10;69.30;;;;;;5029379;28;80214;-82
2020/12/25 05:12:52;;;;;;;5.20;1.90;;;5.10;69.40;;;;;;5029804;28;80372;-80
2020/12/25 05:15:18;;;;;;;2.65;1.13;;;5.00;69.40;;;;;;5010092;28;83478;-77
2020/12/25 05:17:45;;;;;;;4.13;1.02;;;5.00;69.40;;;;;;5009456;28;82798;-77
2020/12/25 05:20:11;;;;;;;2.67;1.00;;;5.00;69.40;;;;;;5009741;28;83176;-80
2020/12/25 05:22:38;;;;;;;3.08;1.40;;;5.00;69.50;;;;;;5009386;28;82066;-77
2020/12/25 05:25:08;;;;;;;3.33;1.30;;;5.00;69.50;;;;;;5009422;28;83406;-78
2020/12/25 05:27:34;;;;;;;3.63;1.38;;;5.00;69.50;;;;;;5027852;28;80645;-81
2020/12/25 05:30:06;;;;;;;2.95;1.25;;;5.00;69.40;;;;;;5027779;28;80344;-79
2020/12/25 05:32:34;;;;;;;4.25;1.42;;;5.00;69.40;;;;;;5026799;28;80455;-79
2020/12/25 05:35:00;;;;;;;4.10;1.35;;;4.90;69.50;;;;;;5027701;28;80172;-79
2020/12/25 05:37:37;;;;;;;4.32;1.40;;;4.90;69.40;;;;;;5027362;28;81058;-79
2020/12/25 05:40:05;;;;;;;5.40;1.52;;;4.90;69.50;;;;;;5027735;28;80684;-80
2020/12/25 05:42:51;;;;;;;4.15;1.60;;;4.80;69.50;;;;;;5009216;28;84033;-78
2020/12/25 05:45:19;;;;;;;5.03;2.15;;;4.80;69.40;;;;;;5008398;28;83608;-76
2020/12/25 05:48:03;;;;;;;4.93;2.00;;;4.70;69.50;;;;;;5008779;28;83491;-75
2020/12/25 05:50:29;;;;;;;3.95;2.00;;;4.70;69.70;;;;;;5009102;28;80496;-75
2020/12/25 05:52:56;;;;;;;3.85;1.80;;;4.60;69.70;;;;;;5008794;28;83033;-75
2020/12/25 05:55:21;;;;;;;3.45;1.67;;;4.60;69.70;;;;;;5009163;28;80237;-75
2020/12/25 05:57:50;;;;;;;4.88;1.98;;;4.50;69.90;;;;;;5008873;28;82413;-75
2020/12/25 06:00:17;;;;;;;3.58;1.92;;;4.40;70.20;;;;;;5027217;28;79740;-76
2020/12/25 06:02:48;;;;;;;4.30;1.88;;;4.30;70.50;;;;;;5027131;28;80753;-73
2020/12/25 06:05:15;;;;;;;5.32;2.35;;;4.30;70.80;;;;;;5026900;28;80441;-75
2020/12/25 06:07:51;;;;;;;9.57;2.70;;;4.20;70.80;;;;;;5027122;28;80649;-82
2020/12/25 06:10:22;;;;;;;5.78;2.83;;;4.20;70.90;;;;;;5027208;28;79764;-78
2020/12/25 06:12:49;;;;;;;4.75;2.65;;;4.20;71.00;;;;;;5026671;28;80698;-72
2020/12/25 06:15:23;;;;;;;6.43;2.72;;;4.20;71.10;;;;;;5027533;28;79813;-72
2020/12/25 06:18:15;;;;;;;5.43;2.55;;;4.20;71.20;;;;;;5008413;28;82863;-72
2020/12/25 06:21:04;;;;;;;9.02;1.98;;;4.10;71.10;;;;;;5026969;28;80330;-71
2020/12/25 06:23:31;;;;;;;4.90;2.65;;;4.10;71.10;;;;;;5008326;28;84054;-71
2020/12/25 06:25:56;;;;;;;5.07;2.28;;;4.10;71.10;;;;;;5008648;28;83240;-71
2020/12/25 06:28:22;;;;;;;3.17;1.58;;;4.00;71.20;;;;;;5008363;28;82420;-72
2020/12/25 06:30:48;;;;;;;6.65;2.45;;;4.00;71.20;;;;;;5008671;28;80557;-71
2020/12/25 06:33:14;;;;;;;5.55;2.30;;;4.00;71.20;;;;;;5026607;28;80658;-71
2020/12/25 06:35:46;;;;;;;5.00;2.15;;;3.90;71.10;;;;;;5026265;28;80056;-71
2020/12/25 06:38:18;;;;;;;4.28;2.20;;;3.90;71.30;;;;;;5007991;28;83209;-72
2020/12/25 06:40:44;;;;;;;6.10;2.28;;;3.90;71.30;;;;;;5008507;28;80111;-71
2020/12/25 06:43:18;;;;;;;5.28;2.75;;;3.80;71.30;;;;;;5008243;28;81212;-72
2020/12/25 06:45:49;;;;;;;4.75;2.30;;;3.90;71.40;;;;;;5025955;28;80096;-72
2020/12/25 06:48:19;;;;;;;7.88;2.83;;;3.80;71.40;;;;;;5008235;28;81906;-74
2020/12/25 06:50:55;;;;;;;7.20;2.65;;;3.80;71.50;;;;;;5008288;28;80417;-72
2020/12/25 06:53:43;;;;;;;5.80;2.65;;;3.80;71.50;;;;;;5008156;28;80786;-72
2020/12/25 06:56:20;;;;;;;5.68;2.45;;;3.90;71.50;;;;;;5008391;28;80550;-73
2020/12/25 06:58:52;;;;;;;6.00;3.00;;;3.90;71.50;;;;;;5009844;28;79803;-71
2020/12/25 07:01:42;;;;;;;4.07;2.30;;;3.80;71.50;;;;;;4995121;28;81851;-73
2020/12/25 07:04:26;;;;;;;5.07;2.83;;;3.90;71.40;;;;;;5011356;28;81043;-74
2020/12/25 07:06:55;;;;;;;4.95;3.10;;;3.80;71.60;;;;;;5011892;28;80324;-74
2020/12/25 07:09:21;;;;;;;8.00;2.97;;;3.80;71.70;;;;;;5029486;28;81337;-74
2020/12/25 07:11:51;;;;;;;7.88;3.25;;;3.80;71.60;;;;;;5029699;28;80232;-74
2020/12/25 07:14:18;;;;;;;6.88;2.78;;;3.80;71.70;;;;;;5011507;28;83559;-75
2020/12/25 07:16:44;;;;;;;6.47;2.70;;;3.80;71.70;;;;;;5011557;28;81226;-74
2020/12/25 07:19:10;;;;;;;9.13;3.75;;;3.80;71.80;;;;;;5011315;28;83247;-75
2020/12/25 07:21:37;;;;;;;11.40;5.30;;;3.90;71.70;;;;;;5011277;28;80736;-75
2020/12/25 07:24:04;;;;;;;13.40;4.53;;;3.80;71.90;;;;;;5029204;28;80991;-75
2020/12/25 07:26:30;;;;;;;6.85;2.92;;;3.80;72.10;;;;;;5011559;28;80381;-74
2020/12/25 07:28:57;;;;;;;7.22;3.30;;;3.80;72.10;;;;;;4994554;28;80919;-73
2020/12/25 07:31:23;;;;;;;9.73;4.32;;;3.70;72.30;;;;;;5011453;28;81771;-75
2020/12/25 07:33:57;;;;;;;14.32;4.43;;;3.70;72.50;;;;;;5028995;28;79857;-71
2020/12/25 07:36:25;;;;;;;10.73;4.20;;;3.70;72.40;;;;;;5029628;28;80475;-72
2020/12/25 07:39:01;;;;;;;10.13;4.18;;;3.80;72.30;;;;;;5029176;28;80590;-71
2020/12/25 07:41:27;;;;;;;10.35;3.63;;;3.80;72.30;;;;;;5011112;28;80645;-72
2020/12/25 07:43:57;;;;;;;12.05;4.40;;;3.80;72.20;;;;;;5029134;28;79790;-71
2020/12/25 07:46:26;;;;;;;11.40;3.78;;;3.90;72.20;;;;;;5011062;28;81313;-74
2020/12/25 07:48:56;;;;;;;8.85;3.75;;;3.90;72.10;;;;;;5028942;28;79746;-73
2020/12/25 07:51:22;;;;;;;10.90;3.72;;;3.90;72.10;;;;;;5011059;28;80875;-73
2020/12/25 07:53:53;;;;;;;8.93;3.75;;;3.90;71.90;;;;;;5011074;28;80768;-74
2020/12/25 07:56:21;;;;;;;7.25;4.07;;;4.00;72.00;;;;;;5029702;28;80345;-72
2020/12/25 07:58:51;;;;;;;8.40;4.00;;;4.00;71.80;;;;;;5010925;28;83792;-73
2020/12/25 08:01:21;;;;;;;6.22;2.97;;;4.10;71.70;;;;;;5028723;28;79979;-74
2020/12/25 08:03:47;;;;;;;9.05;3.00;;;4.10;70.90;;;;;;5029042;28;79889;-73
2020/12/25 08:06:21;;;;;;;6.82;2.63;;;4.20;70.10;;;;;;5028708;28;80237;-73
2020/12/25 08:09:05;;;;;;;7.78;3.38;;;4.30;69.60;;;;;;5028665;28;80793;-72
2020/12/25 08:11:32;;;;;;;8.32;2.50;;;4.30;69.30;;;;;;5028886;28;80780;-74
2020/12/25 08:14:16;;;;;;;4.35;1.88;;;4.30;69.20;;;;;;5029224;28;79863;-73
2020/12/25 08:16:44;;;;;;;7.50;2.60;;;4.40;69.30;;;;;;5010934;28;83471;-74
2020/12/25 08:19:10;;;;;;;7.38;2.17;;;4.40;69.30;;;;;;5010295;28;83776;-74
2020/12/25 08:21:38;;;;;;;7.28;2.70;;;4.40;69.20;;;;;;5010876;28;81086;-74
2020/12/25 08:24:09;;;;;;;11.05;3.45;;;4.50;69.30;;;;;;5010668;28;83854;-73
2020/12/25 08:26:38;;;;;;;10.80;4.45;;;4.60;69.10;;;;;;5029037;28;79842;-74
2020/12/25 08:29:04;;;;;;;14.43;5.28;;;4.60;68.90;;;;;;5028469;28;80657;-74
2020/12/25 08:31:40;;;;;;;21.27;8.35;;;4.70;68.30;;;;;;5028739;28;80045;-73
2020/12/25 08:34:14;;;;;;;12.52;5.78;;;4.80;68.00;;;;;;5010109;28;81960;-75
2020/12/25 08:36:39;;;;;;;;;;;4.90;67.70;;;;;;5010794;28;80265;-73
2020/12/25 08:39:06;;;;;;;10.07;4.10;;;4.90;67.20;;;;;;5015617;28;74496;-74
2020/12/25 08:41:32;;;;;;;7.53;1.88;;;5.00;66.70;;;;;;5010500;28;80101;-73
2020/12/25 08:44:14;;;;;;;6.53;1.65;;;5.20;65.50;;;;;;5009962;28;81515;-72
2020/12/25 08:46:42;;;;;;;7.55;1.48;;;5.40;64.20;;;;;;5027981;28;80337;-73
2020/12/25 08:49:08;;;;;;;1.98;0.68;;;5.60;63.60;;;;;;5009892;28;81194;-74
2020/12/25 08:51:35;;;;;;;4.63;1.05;;;5.80;62.40;;;;;;5028097;28;82105;-73
2020/12/25 08:54:01;;;;;;;1.63;0.40;;;6.00;61.20;;;;;;5010914;28;82483;-72
2020/12/25 08:56:27;;;;;;;2.30;0.40;;;6.20;59.80;;;;;;5009799;28;82381;-73
2020/12/25 08:58:57;;;;;;;1.75;0.30;;;6.40;58.90;;;;;;5027753;28;80591;-72
2020/12/25 09:01:23;;;;;;;3.72;0.60;;;6.40;58.60;;;;;;5010034;28;83539;-67
2020/12/25 09:03:50;;;;;;;1.80;0.47;;;6.60;57.90;;;;;;5027587;28;81536;-63
2020/12/25 09:06:15;;;;;;;2.53;0.73;;;6.80;57.30;;;;;;5028236;28;79965;-63
2020/12/25 09:08:41;;;;;;;3.08;0.57;;;7.00;56.80;;;;;;5009307;28;81819;-67
2020/12/25 09:11:11;;;;;;;1.48;0.28;;;7.10;56.20;;;;;;5028152;28;80103;-66
2020/12/25 09:13:37;;;;;;;1.02;0.25;;;7.20;55.30;;;;;;5027675;28;82355;-66
2020/12/25 09:16:04;;;;;;;1.38;0.30;;;7.20;54.50;;;;;;5027992;28;80137;-65
2020/12/25 09:18:31;;;;;;;1.50;0.30;;;7.30;54.40;;;;;;5009481;28;82209;-69
2020/12/25 09:20:56;;;;;;;1.67;0.40;;;7.50;53.70;;;;;;5026757;28;79712;-70
2020/12/25 09:23:22;;;;;;;1.10;0.30;;;7.70;52.30;;;;;;5028166;28;79783;-70
2020/12/25 09:25:48;;;;;;;0.82;0.10;;;7.90;51.60;;;;;;5028311;28;80284;-70
2020/12/25 09:28:14;;;;;;;3.58;0.85;;;8.30;50.50;;;;;;5027467;28;80587;-68
2020/12/25 09:30:40;;;;;;;2.50;0.63;;;8.50;49.50;;;;;;5027950;28;80195;-68
2020/12/25 09:33:05;;;;;;;2.38;0.68;;;8.60;49.40;;;;;;5009083;28;83401;-70
2020/12/25 09:35:31;;;;;;;3.38;0.38;;;8.80;48.50;;;;;;5027960;28;80525;-67
2020/12/25 09:37:57;;;;;;;2.15;0.52;;;9.10;47.60;;;;;;5027277;28;80710;-71
2020/12/25 09:40:23;;;;;;;5.07;0.73;;;9.40;46.50;;;;;;4992822;28;80736;-63
2020/12/25 09:42:48;;;;;;;2.72;0.40;;;9.70;45.30;;;;;;5028340;28;79799;-68
2020/12/25 09:45:14;;;;;;;2.75;0.50;;;10.20;44.50;;;;;;5027298;28;80150;-68
2020/12/25 09:47:40;;;;;;;3.00;0.43;;;10.70;42.90;;;;;;5009037;28;83346;-70
2020/12/25 09:50:07;;;;;;;4.47;0.63;;;11.00;42.10;;;;;;5009173;28;82034;-68
2020/12/25 09:52:34;;;;;;;3.88;0.63;;;10.90;41.50;;;;;;5027414;28;81111;-67
2020/12/25 09:55:00;;;;;;;2.60;0.90;;;10.90;41.50;;;;;;5027324;28;80478;-68
2020/12/25 09:57:26;;;;;;;1.08;0.20;;;11.20;40.90;;;;;;5027065;28;79831;-67
2020/12/25 09:59:55;;;;;;;1.25;0.22;;;11.50;40.70;;;;;;5027370;28;80248;-66
2020/12/25 10:02:20;;;;;;;3.13;0.55;;;11.90;39.90;;;;;;5027066;28;80435;-66
2020/12/25 10:04:46;;;;;;;2.05;0.45;;;12.40;38.80;;;;;;5027359;28;80281;-69
2020/12/25 10:07:12;;;;;;;2.25;0.30;;;13.00;37.60;;;;;;5027141;28;80863;-66
2020/12/25 10:09:38;;;;;;;1.42;0.28;;;13.60;36.60;;;;;;5027235;28;80305;-67
2020/12/25 10:12:04;;;;;;;2.13;0.32;;;14.20;35.70;;;;;;5027169;28;79878;-67
2020/12/25 10:14:30;;;;;;;2.05;0.57;;;14.80;34.80;;;;;;5027042;28;80247;-67
2020/12/25 10:16:55;;;;;;;2.83;0.45;;;15.20;33.70;;;;;;5008644;28;83187;-65
2020/12/25 10:19:21;;;;;;;1.23;0.40;;;14.90;34.20;;;;;;5008539;28;81618;-68
2020/12/25 10:21:49;;;;;;;2.35;0.30;;;14.50;34.80;;;;;;5008963;28;81030;-65
2020/12/25 10:24:15;;;;;;;2.28;0.50;;;15.50;33.70;;;;;;5008968;28;83936;-67
2020/12/25 10:26:41;;;;;;;2.25;0.35;;;17.10;31.20;;;;;;5027003;28;80545;-68
2020/12/25 10:29:07;;;;;;;3.22;0.50;;;18.40;29.60;;;;;;5026637;28;80766;-66
2020/12/25 10:31:33;;;;;;;1.13;0.13;;;19.10;28.00;;;;;;5026627;28;81794;-67
2020/12/25 10:33:58;;;;;;;1.05;0.13;;;19.20;27.80;;;;;;5026760;28;81234;-63
2020/12/25 10:36:25;;;;;;;0.85;0.20;;;19.90;26.80;;;;;;5026938;28;80756;-64
2020/12/25 10:38:51;;;;;;;3.20;0.60;;;20.40;26.10;;;;;;5026056;28;80436;-66
2020/12/25 10:41:17;;;;;;;3.28;0.55;;;21.00;25.70;;;;;;5026242;28;80428;-67
2020/12/25 10:43:44;;;;;;;1.08;0.32;;;21.90;24.70;;;;;;5008680;28;82040;-70
2020/12/25 10:46:10;;;;;;;2.55;0.25;;;22.60;24.20;;;;;;5026772;28;80987;-66
2020/12/25 10:48:36;;;;;;;0.57;0.28;;;22.70;23.70;;;;;;5026450;28;80414;-70
2020/12/25 10:51:01;;;;;;;2.80;0.10;;;20.50;25.40;;;;;;5026808;28;80510;-68
2020/12/25 10:53:27;;;;;;;2.10;0.40;;;19.70;26.70;;;;;;5026490;28;80215;-67
2020/12/25 10:55:53;;;;;;;3.45;0.47;;;20.00;26.80;;;;;;5026954;28;80661;-69
2020/12/25 10:58:19;;;;;;;2.72;0.40;;;21.40;25.60;;;;;;5007826;28;83799;-67
2020/12/25 11:00:44;;;;;;;0.80;0.13;;;22.80;24.30;;;;;;5026608;28;80653;-68
2020/12/25 11:03:10;;;;;;;0.82;0.28;;;23.30;23.10;;;;;;5025252;28;80702;-67
2020/12/25 11:05:36;;;;;;;2.63;0.52;;;23.50;23.00;;;;;;5007944;28;82997;-68
2020/12/25 11:08:01;;;;;;;1.10;0.20;;;24.40;22.20;;;;;;5026497;28;80100;-68
2020/12/25 11:10:28;;;;;;;2.65;0.30;;;24.70;21.60;;;;;;5026392;28;80561;-66
2020/12/25 11:12:53;;;;;;;2.05;0.35;;;24.30;22.10;;;;;;5026314;28;80072;-65
2020/12/25 11:15:19;;;;;;;2.38;0.55;;;23.10;22.70;;;;;;5026146;28;80758;-66
2020/12/25 11:17:45;;;;;;;3.25;0.65;;;23.00;23.60;;;;;;5026125;28;79898;-66
2020/12/25 11:20:11;;;;;;;1.60;0.20;;;23.50;23.00;;;;;;5026311;28;80731;-69
2020/12/25 11:22:36;;;;;;;1.38;0.50;;;22.50;23.40;;;;;;5007427;28;81813;-70
2020/12/25 11:25:02;;;;;;;2.50;0.40;;;22.60;23.30;;;;;;5026316;28;80446;-69
2020/12/25 11:27:28;;;;;;;2.42;0.22;;;23.00;22.90;;;;;;5026026;28;81549;-69
2020/12/25 11:29:54;;;;;;;0.80;0.20;;;23.50;22.30;;;;;;5026014;28;80565;-70
2020/12/25 11:32:20;;;;;;;1.98;0.60;;;24.20;21.70;;;;;;5007365;28;83387;-70
2020/12/25 11:34:45;;;;;;;0.88;0.17;;;23.80;21.60;;;;;;5025820;28;80500;-67
2020/12/25 11:37:11;;;;;;;0.95;0.10;;;24.60;21.20;;;;;;5025712;28;81463;-63
2020/12/25 11:39:37;;;;;;;2.30;0.20;;;25.50;20.30;;;;;;5025550;28;81741;-67
2020/12/25 11:42:02;;;;;;;0.65;0.15;;;26.10;19.80;;;;;;5025913;28;81315;-69
2020/12/25 11:44:28;;;;;;;1.88;0.40;;;26.70;19.40;;;;;;4992769;28;82893;-68
2020/12/25 11:46:58;;;;;;;2.00;0.57;;;26.10;20.20;;;;;;5029982;28;80341;-68
2020/12/25 11:49:24;;;;;;;1.48;0.50;;;26.00;20.00;;;;;;5029140;28;80514;-70
2020/12/25 11:51:53;;;;;;;1.27;0.17;;;25.90;20.10;;;;;;5011233;28;80704;-69
2020/12/25 11:54:19;;;;;;;3.25;0.30;;;25.90;20.10;;;;;;5029501;28;80751;-70
2020/12/25 11:56:45;;;;;;;1.23;0.35;;;26.70;19.50;;;;;;5029046;28;79869;-69
2020/12/25 11:59:10;;;;;;;1.27;0.50;;;28.20;18.40;;;;;;5029269;28;81856;-70
2020/12/25 12:01:37;;;;;;;4.47;0.40;;;27.60;18.60;;;;;;5011225;28;83729;-66
2020/12/25 12:04:03;;;;;;;1.15;0.22;;;27.40;18.80;;;;;;5030015;28;79715;-71
2020/12/25 12:06:29;;;;;;;2.95;0.20;;;27.80;18.70;;;;;;5011144;28;81372;-70
2020/12/25 12:08:55;;;;;;;1.60;0.40;;;28.50;18.30;;;;;;5010352;28;83807;-69
2020/12/25 12:11:21;;;;;;;0.70;0.20;;;28.40;18.30;;;;;;5029349;28;80241;-68
2020/12/25 12:13:46;;;;;;;0.90;0.20;;;29.10;18.00;;;;;;5029045;28;79869;-69
2020/12/25 12:16:17;;;;;;;1.75;0.17;;;29.90;17.60;;;;;;5011004;28;81283;-67
2020/12/25 12:18:43;;;;;;;1.77;0.30;;;30.00;17.40;;;;;;5028515;28;80596;-68
2020/12/25 12:21:09;;;;;;;1.50;0.20;;;30.20;17.30;;;;;;5028556;28;80289;-68
2020/12/25 12:23:36;;;;;;;0.68;0.17;;;29.70;17.50;;;;;;5028849;28;81138;-69
2020/12/25 12:26:03;;;;;;;1.80;0.20;;;30.10;17.70;;;;;;4993751;28;83126;-69
2020/12/25 12:28:28;;;;;;;3.25;0.40;;;30.50;17.20;;;;;;5028961;28;80773;-68
2020/12/25 12:30:55;;;;;;;10.70;0.57;;;30.40;17.20;;;;;;5010391;28;83169;-68
2020/12/25 12:33:20;;;;;;;1.70;0.40;;;29.20;17.60;;;;;;5010348;28;83624;-67
2020/12/25 12:35:46;;;;;;;0.88;0.20;;;27.60;18.70;;;;;;5028242;28;81427;-66
2020/12/25 12:38:12;;;;;;;3.22;1.08;;;27.70;19.20;;;;;;5010038;28;82991;-65
2020/12/25 12:40:38;;;;;;;1.10;0.20;;;28.40;18.60;;;;;;5010741;28;80435;-69
2020/12/25 12:43:04;;;;;;;2.65;0.40;;;28.90;18.30;;;;;;5028356;28;80345;-67
2020/12/25 12:45:29;;;;;;;3.28;0.80;;;29.40;18.00;;;;;;5029030;28;80242;-69
2020/12/25 12:47:55;;;;;;;1.27;0.20;;;28.60;18.30;;;;;;5027307;28;80190;-69
2020/12/25 12:50:21;;;;;;;1.85;0.50;;;28.20;18.70;;;;;;5028304;28;81409;-69
2020/12/25 12:52:47;;;;;;;1.45;0.60;;;27.40;18.80;;;;;;5028711;28;80615;-68
2020/12/25 12:55:12;;;;;;;1.88;0.50;;;25.90;19.80;;;;;;5009999;28;81559;-65